Station Historical Data
Daily Summary for February 4, 2012 Units:  Both    English   Metric
« Previous Day
Next Day »
Daily Weekly Monthly Yearly Custom
  High: Low: Average:
Temperature: 56.9 °F /  13.8 °C 49.9 °F /  9.9 °C 53.3 °F /  11.8 °C
Dew Point: 55.8 °F /  13.2 °C 48.0 °F /  8.9 °C 51.8 °F /  11 °C
Humidity: 96% 89% 94%
Wind Speed: 11.0mph /  17.7km/h - 3.7mph /  6km/h
Wind Gust: 14.0mph /  22.5km/h - -
Wind- - SSE
Pressure: 30.19 in /  1022.2 hPa 29.99 in /  1015.5 hPa -
Precipitation: 0.81 in /  20.57 mm    
Historical Graphs
 
 
Tabular Data for February 4, 2012
Time Temperature Dew Point Pressure Wind Wind Speed Wind Gust Humidity Rainfall Rate (Hourly) Conditions
00:00 50.2 °F /  10.1 °C 48.0 °F /  8.9 °C 30.19in /  1022.2hPa ESE 7.0mph /  11.3km/h 11.0mph /  17.7km/h 92% 0.00in /  0mm
00:01 50.2 °F /  10.1 °C 48.0 °F /  8.9 °C 30.19in /  1022.2hPa ESE 6.0mph /  9.7km/h 11.0mph /  17.7km/h 92% 0.00in /  0mm
00:06 50.1 °F /  10.1 °C 48.2 °F /  9 °C 30.18in /  1021.9hPa SE 8.0mph /  12.9km/h 10.0mph /  16.1km/h 93% 0.00in /  0mm
00:11 50.1 °F /  10.1 °C 48.2 °F /  9 °C 30.18in /  1021.9hPa ESE 10.0mph /  16.1km/h 12.0mph /  19.3km/h 93% 0.00in /  0mm
00:16 50.1 °F /  10.1 °C 48.2 °F /  9 °C 30.18in /  1021.9hPa ESE 8.0mph /  12.9km/h 10.0mph /  16.1km/h 93% 0.00in /  0mm
00:21 50.0 °F /  10 °C 48.1 °F /  8.9 °C 30.18in /  1021.9hPa ESE 8.0mph /  12.9km/h 9.0mph /  14.5km/h 93% 0.00in /  0mm
00:26 50.0 °F /  10 °C 48.1 °F /  8.9 °C 30.18in /  1021.9hPa East 9.0mph /  14.5km/h 9.0mph /  14.5km/h 93% 0.00in /  0mm
00:31 49.9 °F /  9.9 °C 48.0 °F /  8.9 °C 30.18in /  1021.9hPa ESE 9.0mph /  14.5km/h 9.0mph /  14.5km/h 93% 0.00in /  0mm
00:36 49.9 °F /  9.9 °C 48.0 °F /  8.9 °C 30.18in /  1021.9hPa ESE 11.0mph /  17.7km/h 14.0mph /  22.5km/h 93% 0.00in /  0mm
00:41 50.0 °F /  10 °C 48.1 °F /  8.9 °C 30.17in /  1021.6hPa SE 6.0mph /  9.7km/h 12.0mph /  19.3km/h 93% 0.00in /  0mm
00:46 50.0 °F /  10 °C 48.1 °F /  8.9 °C 30.17in /  1021.6hPa East 10.0mph /  16.1km/h 10.0mph /  16.1km/h 93% 0.00in /  0mm
00:51 50.0 °F /  10 °C 48.1 °F /  8.9 °C 30.18in /  1021.9hPa ESE 6.0mph /  9.7km/h 7.0mph /  11.3km/h 93% 0.00in /  0mm
00:56 49.9 °F /  9.9 °C 48.0 °F /  8.9 °C 30.17in /  1021.6hPa SE 5.0mph /  8km/h 11.0mph /  17.7km/h 93% 0.00in /  0mm
01:01 49.9 °F /  9.9 °C 48.0 °F /  8.9 °C 30.17in /  1021.6hPa SE 8.0mph /  12.9km/h 10.0mph /  16.1km/h 93% 0.00in /  0mm
01:07 49.9 °F /  9.9 °C 48.0 °F /  8.9 °C 30.17in /  1021.6hPa SE 8.0mph /  12.9km/h 8.0mph /  12.9km/h 93% 0.00in /  0mm
01:12 50.0 °F /  10 °C 48.1 °F /  8.9 °C 30.17in /  1021.6hPa ESE 6.0mph /  9.7km/h 9.0mph /  14.5km/h 93% 0.00in /  0mm
01:17 50.0 °F /  10 °C 48.1 °F /  8.9 °C 30.17in /  1021.6hPa ESE 4.0mph /  6.4km/h 10.0mph /  16.1km/h 93% 0.00in /  0mm
01:22 50.0 °F /  10 °C 48.1 °F /  8.9 °C 30.17in /  1021.6hPa ESE 6.0mph /  9.7km/h 10.0mph /  16.1km/h 93% 0.00in /  0mm
01:27 50.0 °F /  10 °C 48.1 °F /  8.9 °C 30.17in /  1021.6hPa SE 6.0mph /  9.7km/h 8.0mph /  12.9km/h 93% 0.00in /  0mm
01:32 50.0 °F /  10 °C 48.1 °F /  8.9 °C 30.17in /  1021.6hPa ESE 7.0mph /  11.3km/h 8.0mph /  12.9km/h 93% 0.00in /  0mm
01:37 50.0 °F /  10 °C 48.3 °F /  9.1 °C 30.17in /  1021.6hPa ESE 5.0mph /  8km/h 7.0mph /  11.3km/h 94% 0.00in /  0mm
01:42 50.0 °F /  10 °C 48.3 °F /  9.1 °C 30.17in /  1021.6hPa ESE 6.0mph /  9.7km/h 8.0mph /  12.9km/h 94% 0.00in /  0mm
01:47 49.9 °F /  9.9 °C 48.2 °F /  9 °C 30.16in /  1021.2hPa SE 5.0mph /  8km/h 6.0mph /  9.7km/h 94% 0.00in /  0mm
01:48 49.9 °F /  9.9 °C 48.2 °F /  9 °C 30.16in /  1021.2hPa ESE 6.0mph /  9.7km/h 8.0mph /  12.9km/h 94% 0.00in /  0mm
01:53 49.9 °F /  9.9 °C 48.2 °F /  9 °C 30.16in /  1021.2hPa ESE 7.0mph /  11.3km/h 8.0mph /  12.9km/h 94% 0.00in /  0mm
01:58 50.0 °F /  10 °C 48.3 °F /  9.1 °C 30.16in /  1021.2hPa ESE 6.0mph /  9.7km/h 6.0mph /  9.7km/h 94% 0.00in /  0mm
02:03 50.0 °F /  10 °C 48.3 °F /  9.1 °C 30.16in /  1021.2hPa ESE 6.0mph /  9.7km/h 8.0mph /  12.9km/h 94% 0.00in /  0mm
02:08 50.0 °F /  10 °C 48.1 °F /  8.9 °C 30.16in /  1021.2hPa ESE 1.0mph /  1.6km/h 8.0mph /  12.9km/h 93% 0.00in /  0mm
02:14 50.1 °F /  10.1 °C 48.2 °F /  9 °C 30.16in /  1021.2hPa ESE 3.0mph /  4.8km/h 3.0mph /  4.8km/h 93% 0.00in /  0mm
02:19 50.1 °F /  10.1 °C 48.2 °F /  9 °C 30.17in /  1021.6hPa SE 4.0mph /  6.4km/h 4.0mph /  6.4km/h 93% 0.00in /  0mm
02:24 50.1 °F /  10.1 °C 48.2 °F /  9 °C 30.16in /  1021.2hPa ESE 4.0mph /  6.4km/h 4.0mph /  6.4km/h 93% 0.00in /  0mm
02:29 50.2 °F /  10.1 °C 48.3 °F /  9.1 °C 30.16in /  1021.2hPa ESE 4.0mph /  6.4km/h 6.0mph /  9.7km/h 93% 0.00in /  0mm
02:34 50.1 °F /  10.1 °C 48.2 °F /  9 °C 30.16in /  1021.2hPa ESE 4.0mph /  6.4km/h 5.0mph /  8km/h 93% 0.00in /  0mm
02:39 50.2 °F /  10.1 °C 48.3 °F /  9.1 °C 30.16in /  1021.2hPa SE 4.0mph /  6.4km/h 6.0mph /  9.7km/h 93% 0.00in /  0mm
02:44 50.2 °F /  10.1 °C 48.3 °F /  9.1 °C 30.16in /  1021.2hPa SE 3.0mph /  4.8km/h 7.0mph /  11.3km/h 93% 0.00in /  0mm
02:49 50.2 °F /  10.1 °C 48.5 °F /  9.2 °C 30.15in /  1020.9hPa ESE 7.0mph /  11.3km/h 7.0mph /  11.3km/h 94% 0.00in /  0mm
02:54 50.3 °F /  10.2 °C 48.4 °F /  9.1 °C 30.15in /  1020.9hPa ESE 6.0mph /  9.7km/h 8.0mph /  12.9km/h 93% 0.00in /  0mm
02:59 50.3 °F /  10.2 °C 48.4 °F /  9.1 °C 30.15in /  1020.9hPa ESE 5.0mph /  8km/h 7.0mph /  11.3km/h 93% 0.00in /  0mm
03:04 50.3 °F /  10.2 °C 48.4 °F /  9.1 °C 30.15in /  1020.9hPa East 8.0mph /  12.9km/h 8.0mph /  12.9km/h 93% 0.00in /  0mm
03:09 50.3 °F /  10.2 °C 48.4 °F /  9.1 °C 30.15in /  1020.9hPa ESE 4.0mph /  6.4km/h 8.0mph /  12.9km/h 93% 0.00in /  0mm
03:14 50.3 °F /  10.2 °C 48.6 °F /  9.2 °C 30.15in /  1020.9hPa East 3.0mph /  4.8km/h 4.0mph /  6.4km/h 94% 0.00in /  0mm
03:19 50.3 °F /  10.2 °C 48.6 °F /  9.2 °C 30.15in /  1020.9hPa SE 1.0mph /  1.6km/h 3.0mph /  4.8km/h 94% 0.00in /  0mm
03:24 50.3 °F /  10.2 °C 48.6 °F /  9.2 °C 30.16in /  1021.2hPa Calm   2.0mph /  3.2km/h 94% 0.00in /  0mm
03:29 50.3 °F /  10.2 °C 48.6 °F /  9.2 °C 30.16in /  1021.2hPa SE 2.0mph /  3.2km/h 2.0mph /  3.2km/h 94% 0.00in /  0mm
03:34 50.3 °F /  10.2 °C 48.6 °F /  9.2 °C 30.16in /  1021.2hPa SE 3.0mph /  4.8km/h 5.0mph /  8km/h 94% 0.00in /  0mm
03:39 50.4 °F /  10.2 °C 48.7 °F /  9.3 °C 30.15in /  1020.9hPa SE 5.0mph /  8km/h 7.0mph /  11.3km/h 94% 0.00in /  0mm
03:44 50.4 °F /  10.2 °C 48.7 °F /  9.3 °C 30.15in /  1020.9hPa ESE 5.0mph /  8km/h 8.0mph /  12.9km/h 94% 0.00in /  0mm
03:49 50.4 °F /  10.2 °C 48.7 °F /  9.3 °C 30.15in /  1020.9hPa SSE 1.0mph /  1.6km/h 5.0mph /  8km/h 94% 0.00in /  0mm
03:54 50.4 °F /  10.2 °C 48.7 °F /  9.3 °C 30.15in /  1020.9hPa Calm   1.0mph /  1.6km/h 94% 0.00in /  0mm
03:59 50.3 °F /  10.2 °C 48.6 °F /  9.2 °C 30.15in /  1020.9hPa ESE 1.0mph /  1.6km/h 1.0mph /  1.6km/h 94% 0.00in /  0mm
04:04 50.3 °F /  10.2 °C 48.6 °F /  9.2 °C 30.15in /  1020.9hPa ESE 4.0mph /  6.4km/h 4.0mph /  6.4km/h 94% 0.00in /  0mm
04:09 50.3 °F /  10.2 °C 48.6 °F /  9.2 °C 30.14in /  1020.5hPa SE 2.0mph /  3.2km/h 5.0mph /  8km/h 94% 0.00in /  0mm
04:14 50.3 °F /  10.2 °C 48.6 °F /  9.2 °C 30.14in /  1020.5hPa ESE 3.0mph /  4.8km/h 5.0mph /  8km/h 94% 0.05in /  1.27mm
04:19 50.3 °F /  10.2 °C 48.6 °F /  9.2 °C 30.14in /  1020.5hPa SE 3.0mph /  4.8km/h 3.0mph /  4.8km/h 94% 0.05in /  1.27mm
04:24 50.3 °F /  10.2 °C 48.9 °F /  9.4 °C 30.14in /  1020.5hPa ESE 4.0mph /  6.4km/h 4.0mph /  6.4km/h 95% 0.04in /  1.02mm
04:29 50.3 °F /  10.2 °C 48.9 °F /  9.4 °C 30.14in /  1020.5hPa SE 2.0mph /  3.2km/h 4.0mph /  6.4km/h 95% 0.00in /  0mm
04:34 50.3 °F /  10.2 °C 48.9 °F /  9.4 °C 30.14in /  1020.5hPa SE 2.0mph /  3.2km/h 4.0mph /  6.4km/h 95% 0.00in /  0mm
04:39 50.3 °F /  10.2 °C 48.9 °F /  9.4 °C 30.14in /  1020.5hPa ESE 2.0mph /  3.2km/h 3.0mph /  4.8km/h 95% 0.00in /  0mm
04:44 50.4 °F /  10.2 °C 49.0 °F /  9.4 °C 30.14in /  1020.5hPa ESE 2.0mph /  3.2km/h 2.0mph /  3.2km/h 95% 0.00in /  0mm
04:49 50.3 °F /  10.2 °C 48.9 °F /  9.4 °C 30.14in /  1020.5hPa SE 3.0mph /  4.8km/h 3.0mph /  4.8km/h 95% 0.00in /  0mm
04:54 50.4 °F /  10.2 °C 49.0 °F /  9.4 °C 30.14in /  1020.5hPa SE 4.0mph /  6.4km/h 4.0mph /  6.4km/h 95% 0.00in /  0mm
04:59 50.5 °F /  10.3 °C 49.1 °F /  9.5 °C 30.14in /  1020.5hPa SE 3.0mph /  4.8km/h 3.0mph /  4.8km/h 95% 0.00in /  0mm
05:05 50.5 °F /  10.3 °C 49.1 °F /  9.5 °C 30.14in /  1020.5hPa ESE 3.0mph /  4.8km/h 4.0mph /  6.4km/h 95% 0.00in /  0mm
05:10 50.5 °F /  10.3 °C 49.1 °F /  9.5 °C 30.14in /  1020.5hPa ESE 1.0mph /  1.6km/h 2.0mph /  3.2km/h 95% 0.00in /  0mm
05:15 50.5 °F /  10.3 °C 49.1 °F /  9.5 °C 30.14in /  1020.5hPa ESE 2.0mph /  3.2km/h 2.0mph /  3.2km/h 95% 0.00in /  0mm
05:20 50.6 °F /  10.3 °C 49.2 °F /  9.6 °C 30.14in /  1020.5hPa ESE 3.0mph /  4.8km/h 4.0mph /  6.4km/h 95% 0.00in /  0mm
05:25 50.7 °F /  10.4 °C 49.3 °F /  9.6 °C 30.14in /  1020.5hPa SE 2.0mph /  3.2km/h 4.0mph /  6.4km/h 95% 0.00in /  0mm
05:30 50.7 °F /  10.4 °C 49.3 °F /  9.6 °C 30.14in /  1020.5hPa ESE 2.0mph /  3.2km/h 4.0mph /  6.4km/h 95% 0.00in /  0mm
05:32 50.7 °F /  10.4 °C 49.0 °F /  9.4 °C 30.14in /  1020.5hPa SE 3.0mph /  4.8km/h 4.0mph /  6.4km/h 94% 0.00in /  0mm
05:37 50.8 °F /  10.4 °C 49.1 °F /  9.5 °C 30.13in /  1020.2hPa ESE 4.0mph /  6.4km/h 5.0mph /  8km/h 94% 0.00in /  0mm
05:42 50.9 °F /  10.5 °C 49.2 °F /  9.6 °C 30.14in /  1020.5hPa ESE 4.0mph /  6.4km/h 8.0mph /  12.9km/h 94% 0.00in /  0mm
05:47 51.0 °F /  10.6 °C 49.3 °F /  9.6 °C 30.13in /  1020.2hPa ESE 5.0mph /  8km/h 9.0mph /  14.5km/h 94% 0.00in /  0mm
05:52 51.0 °F /  10.6 °C 49.3 °F /  9.6 °C 30.13in /  1020.2hPa SE 4.0mph /  6.4km/h 7.0mph /  11.3km/h 94% 0.00in /  0mm
05:57 51.1 °F /  10.6 °C 49.4 °F /  9.7 °C 30.13in /  1020.2hPa SE 4.0mph /  6.4km/h 6.0mph /  9.7km/h 94% 0.00in /  0mm
06:02 51.0 °F /  10.6 °C 49.0 °F /  9.4 °C 30.13in /  1020.2hPa SSE 6.0mph /  9.7km/h 9.0mph /  14.5km/h 93% 0.00in /  0mm
06:07 51.1 °F /  10.6 °C 49.2 °F /  9.6 °C 30.13in /  1020.2hPa SE 5.0mph /  8km/h 10.0mph /  16.1km/h 93% 0.00in /  0mm
06:12 51.1 °F /  10.6 °C 49.2 °F /  9.6 °C 30.12in /  1019.9hPa SE 5.0mph /  8km/h 10.0mph /  16.1km/h 93% 0.00in /  0mm
06:17 51.1 °F /  10.6 °C 49.2 °F /  9.6 °C 30.13in /  1020.2hPa ESE 5.0mph /  8km/h 8.0mph /  12.9km/h 93% 0.00in /  0mm
06:22 51.2 °F /  10.7 °C 49.2 °F /  9.6 °C 30.12in /  1019.9hPa ESE 5.0mph /  8km/h 8.0mph /  12.9km/h 93% 0.00in /  0mm
06:27 51.2 °F /  10.7 °C 49.2 °F /  9.6 °C 30.13in /  1020.2hPa ESE 4.0mph /  6.4km/h 9.0mph /  14.5km/h 93% 0.00in /  0mm
06:32 51.2 °F /  10.7 °C 49.2 °F /  9.6 °C 30.13in /  1020.2hPa SE 5.0mph /  8km/h 6.0mph /  9.7km/h 93% 0.00in /  0mm
06:37 51.2 °F /  10.7 °C 49.2 °F /  9.6 °C 30.12in /  1019.9hPa SE 4.0mph /  6.4km/h 9.0mph /  14.5km/h 93% 0.00in /  0mm
06:42 51.2 °F /  10.7 °C 49.2 °F /  9.6 °C 30.13in /  1020.2hPa SE 4.0mph /  6.4km/h 7.0mph /  11.3km/h 93% 0.00in /  0mm
06:47 51.3 °F /  10.7 °C 49.1 °F /  9.5 °C 30.13in /  1020.2hPa ESE 6.0mph /  9.7km/h 10.0mph /  16.1km/h 92% 0.00in /  0mm
06:52 51.3 °F /  10.7 °C 49.1 °F /  9.5 °C 30.12in /  1019.9hPa SE 8.0mph /  12.9km/h 8.0mph /  12.9km/h 92% 0.00in /  0mm
06:57 51.2 °F /  10.7 °C 49.0 °F /  9.4 °C 30.12in /  1019.9hPa SE 7.0mph /  11.3km/h 10.0mph /  16.1km/h 92% 0.00in /  0mm
07:02 51.2 °F /  10.7 °C 49.0 °F /  9.4 °C 30.12in /  1019.9hPa ESE 7.0mph /  11.3km/h 11.0mph /  17.7km/h 92% 0.00in /  0mm
07:07 51.2 °F /  10.7 °C 49.0 °F /  9.4 °C 30.12in /  1019.9hPa ESE 7.0mph /  11.3km/h 10.0mph /  16.1km/h 92% 0.00in /  0mm
07:12 51.2 °F /  10.7 °C 49.0 °F /  9.4 °C 30.12in /  1019.9hPa SE 7.0mph /  11.3km/h 10.0mph /  16.1km/h 92% 0.00in /  0mm
07:17 51.2 °F /  10.7 °C 49.0 °F /  9.4 °C 30.12in /  1019.9hPa SE 8.0mph /  12.9km/h 10.0mph /  16.1km/h 92% 0.00in /  0mm
07:22 51.2 °F /  10.7 °C 49.0 °F /  9.4 °C 30.12in /  1019.9hPa SE 7.0mph /  11.3km/h 11.0mph /  17.7km/h 92% 0.00in /  0mm
07:27 51.2 °F /  10.7 °C 49.0 °F /  9.4 °C 30.12in /  1019.9hPa SE 7.0mph /  11.3km/h 10.0mph /  16.1km/h 92% 0.00in /  0mm
07:32 51.2 °F /  10.7 °C 48.7 °F /  9.3 °C 30.12in /  1019.9hPa SE 8.0mph /  12.9km/h 12.0mph /  19.3km/h 91% 0.00in /  0mm
07:37 51.2 °F /  10.7 °C 48.7 °F /  9.3 °C 30.13in /  1020.2hPa SE 7.0mph /  11.3km/h 9.0mph /  14.5km/h 91% 0.00in /  0mm
07:42 51.3 °F /  10.7 °C 48.8 °F /  9.3 °C 30.13in /  1020.2hPa SE 5.0mph /  8km/h 9.0mph /  14.5km/h 91% 0.00in /  0mm
07:47 51.4 °F /  10.8 °C 48.9 °F /  9.4 °C 30.13in /  1020.2hPa SE 4.0mph /  6.4km/h 8.0mph /  12.9km/h 91% 0.00in /  0mm
07:52 51.4 °F /  10.8 °C 48.9 °F /  9.4 °C 30.13in /  1020.2hPa ESE 5.0mph /  8km/h 10.0mph /  16.1km/h 91% 0.00in /  0mm
07:57 51.4 °F /  10.8 °C 48.9 °F /  9.4 °C 30.13in /  1020.2hPa ESE 6.0mph /  9.7km/h 8.0mph /  12.9km/h 91% 0.00in /  0mm
08:02 51.5 °F /  10.8 °C 49.0 °F /  9.4 °C 30.13in /  1020.2hPa ESE 8.0mph /  12.9km/h 9.0mph /  14.5km/h 91% 0.00in /  0mm
08:07 51.5 °F /  10.8 °C 49.0 °F /  9.4 °C 30.12in /  1019.9hPa SSE 8.0mph /  12.9km/h 10.0mph /  16.1km/h 91% 0.00in /  0mm
08:12 51.6 °F /  10.9 °C 49.1 °F /  9.5 °C 30.12in /  1019.9hPa SE 8.0mph /  12.9km/h 10.0mph /  16.1km/h 91% 0.00in /  0mm
08:17 51.8 °F /  11 °C 49.3 °F /  9.6 °C 30.12in /  1019.9hPa SE 7.0mph /  11.3km/h 12.0mph /  19.3km/h 91% 0.00in /  0mm
08:22 52.0 °F /  11.1 °C 49.2 °F /  9.6 °C 30.12in /  1019.9hPa ESE 6.0mph /  9.7km/h 9.0mph /  14.5km/h 90% 0.00in /  0mm
08:28 52.2 °F /  11.2 °C 49.4 °F /  9.7 °C 30.13in /  1020.2hPa SSE 6.0mph /  9.7km/h 8.0mph /  12.9km/h 90% 0.00in /  0mm
08:33 52.3 °F /  11.3 °C 49.5 °F /  9.7 °C 30.13in /  1020.2hPa ESE 8.0mph /  12.9km/h 9.0mph /  14.5km/h 90% 0.00in /  0mm
08:38 52.5 °F /  11.4 °C 49.4 °F /  9.7 °C 30.12in /  1019.9hPa SE 8.0mph /  12.9km/h 10.0mph /  16.1km/h 89% 0.00in /  0mm
08:43 52.6 °F /  11.4 °C 49.5 °F /  9.7 °C 30.12in /  1019.9hPa SE 6.0mph /  9.7km/h 11.0mph /  17.7km/h 89% 0.00in /  0mm
08:48 52.7 °F /  11.5 °C 49.5 °F /  9.7 °C 30.12in /  1019.9hPa SE 6.0mph /  9.7km/h 9.0mph /  14.5km/h 89% 0.00in /  0mm
08:53 52.8 °F /  11.6 °C 49.7 °F /  9.8 °C 30.12in /  1019.9hPa SSE 4.0mph /  6.4km/h 11.0mph /  17.7km/h 89% 0.00in /  0mm
08:58 52.9 °F /  11.6 °C 49.8 °F /  9.9 °C 30.12in /  1019.9hPa SE 5.0mph /  8km/h 9.0mph /  14.5km/h 89% 0.00in /  0mm
09:03 52.9 °F /  11.6 °C 49.8 °F /  9.9 °C 30.12in /  1019.9hPa SSE 6.0mph /  9.7km/h 8.0mph /  12.9km/h 89% 0.00in /  0mm
09:08 53.0 °F /  11.7 °C 49.8 °F /  9.9 °C 30.12in /  1019.9hPa SSE 4.0mph /  6.4km/h 9.0mph /  14.5km/h 89% 0.00in /  0mm
09:13 53.1 °F /  11.7 °C 50.0 °F /  10 °C 30.12in /  1019.9hPa SSE 7.0mph /  11.3km/h 9.0mph /  14.5km/h 89% 0.00in /  0mm
09:18 53.2 °F /  11.8 °C 50.0 °F /  10 °C 30.13in /  1020.2hPa SE 4.0mph /  6.4km/h 7.0mph /  11.3km/h 89% 0.00in /  0mm
09:23 53.2 °F /  11.8 °C 50.0 °F /  10 °C 30.12in /  1019.9hPa SE 4.0mph /  6.4km/h 7.0mph /  11.3km/h 89% 0.00in /  0mm
09:28 53.2 °F /  11.8 °C 50.0 °F /  10 °C 30.12in /  1019.9hPa SE 4.0mph /  6.4km/h 7.0mph /  11.3km/h 89% 0.00in /  0mm
09:33 53.3 °F /  11.8 °C 50.2 °F /  10.1 °C 30.12in /  1019.9hPa ESE 9.0mph /  14.5km/h 9.0mph /  14.5km/h 89% 0.00in /  0mm
09:38 53.4 °F /  11.9 °C 50.2 °F /  10.1 °C 30.12in /  1019.9hPa SE 5.0mph /  8km/h 8.0mph /  12.9km/h 89% 0.00in /  0mm
09:43 53.5 °F /  11.9 °C 50.3 °F /  10.2 °C 30.12in /  1019.9hPa SE 4.0mph /  6.4km/h 6.0mph /  9.7km/h 89% 0.00in /  0mm
09:48 53.6 °F /  12 °C 50.4 °F /  10.2 °C 30.12in /  1019.9hPa SE 1.0mph /  1.6km/h 5.0mph /  8km/h 89% 0.00in /  0mm
09:53 53.7 °F /  12.1 °C 50.5 °F /  10.3 °C 30.12in /  1019.9hPa SE 1.0mph /  1.6km/h 3.0mph /  4.8km/h 89% 0.00in /  0mm
09:58 53.8 °F /  12.1 °C 50.6 °F /  10.3 °C 30.12in /  1019.9hPa SSW 1.0mph /  1.6km/h 4.0mph /  6.4km/h 89% 0.00in /  0mm
10:03 53.8 °F /  12.1 °C 50.6 °F /  10.3 °C 30.13in /  1020.2hPa West 2.0mph /  3.2km/h 2.0mph /  3.2km/h 89% 0.00in /  0mm
10:08 53.8 °F /  12.1 °C 50.9 °F /  10.5 °C 30.13in /  1020.2hPa NW 4.0mph /  6.4km/h 5.0mph /  8km/h 90% 0.41in /  10.41mm
10:13 53.3 °F /  11.8 °C 50.7 °F /  10.4 °C 30.14in /  1020.5hPa WNW 6.0mph /  9.7km/h 6.0mph /  9.7km/h 91% 0.37in /  9.4mm
10:18 52.9 °F /  11.6 °C 50.6 °F /  10.3 °C 30.14in /  1020.5hPa NNW 3.0mph /  4.8km/h 5.0mph /  8km/h 92% 0.14in /  3.56mm
10:24 52.6 °F /  11.4 °C 50.3 °F /  10.2 °C 30.15in /  1020.9hPa WNW 3.0mph /  4.8km/h 6.0mph /  9.7km/h 92% 0.33in /  8.38mm
10:29 52.4 °F /  11.3 °C 50.4 °F /  10.2 °C 30.15in /  1020.9hPa NW 7.0mph /  11.3km/h 7.0mph /  11.3km/h 93% 0.10in /  2.54mm
10:34 52.3 °F /  11.3 °C 50.3 °F /  10.2 °C 30.14in /  1020.5hPa WNW 5.0mph /  8km/h 5.0mph /  8km/h 93% 0.05in /  1.27mm
10:39 52.2 °F /  11.2 °C 50.5 °F /  10.3 °C 30.15in /  1020.9hPa NW 2.0mph /  3.2km/h 5.0mph /  8km/h 94% 0.04in /  1.02mm
10:44 52.1 °F /  11.2 °C 50.4 °F /  10.2 °C 30.15in /  1020.9hPa NW 3.0mph /  4.8km/h 5.0mph /  8km/h 94% 0.60in /  15.24mm
10:49 52.0 °F /  11.1 °C 50.3 °F /  10.2 °C 30.15in /  1020.9hPa NW 3.0mph /  4.8km/h 4.0mph /  6.4km/h 94% 0.19in /  4.83mm
10:54 51.9 °F /  11.1 °C 50.5 °F /  10.3 °C 30.15in /  1020.9hPa NW 4.0mph /  6.4km/h 5.0mph /  8km/h 95% 0.07in /  1.78mm
10:59 51.8 °F /  11 °C 50.4 °F /  10.2 °C 30.15in /  1020.9hPa NW 2.0mph /  3.2km/h 3.0mph /  4.8km/h 95% 0.05in /  1.27mm
11:04 51.8 °F /  11 °C 50.4 °F /  10.2 °C 30.15in /  1020.9hPa NW 2.0mph /  3.2km/h 3.0mph /  4.8km/h 95% 0.17in /  4.32mm
11:09 51.8 °F /  11 °C 50.4 °F /  10.2 °C 30.15in /  1020.9hPa NW 2.0mph /  3.2km/h 3.0mph /  4.8km/h 95% 0.28in /  7.11mm
11:14 51.7 °F /  10.9 °C 50.3 °F /  10.2 °C 30.15in /  1020.9hPa NNE 1.0mph /  1.6km/h 2.0mph /  3.2km/h 95% 0.15in /  3.81mm
11:19 51.8 °F /  11 °C 50.4 °F /  10.2 °C 30.15in /  1020.9hPa North 2.0mph /  3.2km/h 2.0mph /  3.2km/h 95% 0.14in /  3.56mm
11:24 51.8 °F /  11 °C 50.4 °F /  10.2 °C 30.15in /  1020.9hPa NE 2.0mph /  3.2km/h 2.0mph /  3.2km/h 95% 0.09in /  2.29mm
11:29 51.8 °F /  11 °C 50.4 °F /  10.2 °C 30.15in /  1020.9hPa NE 1.0mph /  1.6km/h 2.0mph /  3.2km/h 95% 0.09in /  2.29mm
11:35 51.9 °F /  11.1 °C 50.5 °F /  10.3 °C 30.15in /  1020.9hPa NE 2.0mph /  3.2km/h 3.0mph /  4.8km/h 95% 0.24in /  6.1mm
11:40 51.9 °F /  11.1 °C 50.5 °F /  10.3 °C 30.14in /  1020.5hPa NNE 2.0mph /  3.2km/h 2.0mph /  3.2km/h 95% 0.36in /  9.14mm
11:45 51.9 °F /  11.1 °C 50.5 °F /  10.3 °C 30.14in /  1020.5hPa NNE 2.0mph /  3.2km/h 3.0mph /  4.8km/h 95% 0.14in /  3.56mm
11:46 51.9 °F /  11.1 °C 50.5 °F /  10.3 °C 30.14in /  1020.5hPa NNE 1.0mph /  1.6km/h 3.0mph /  4.8km/h 95% 0.14in /  3.56mm
11:51 51.9 °F /  11.1 °C 50.5 °F /  10.3 °C 30.14in /  1020.5hPa NE 1.0mph /  1.6km/h 2.0mph /  3.2km/h 95% 0.25in /  6.35mm
11:56 52.0 °F /  11.1 °C 50.6 °F /  10.3 °C 30.14in /  1020.5hPa Calm   1.0mph /  1.6km/h 95% 0.35in /  8.89mm
12:02 52.0 °F /  11.1 °C 50.6 °F /  10.3 °C 30.14in /  1020.5hPa NE 2.0mph /  3.2km/h 2.0mph /  3.2km/h 95% 0.29in /  7.37mm
12:07 52.0 °F /  11.1 °C 50.6 °F /  10.3 °C 30.14in /  1020.5hPa ENE 1.0mph /  1.6km/h 1.0mph /  1.6km/h 95% 0.26in /  6.6mm
12:12 52.2 °F /  11.2 °C 50.8 °F /  10.4 °C 30.13in /  1020.2hPa ENE 3.0mph /  4.8km/h 3.0mph /  4.8km/h 95% 0.13in /  3.3mm
12:17 52.3 °F /  11.3 °C 50.9 °F /  10.5 °C 30.12in /  1019.9hPa ENE 2.0mph /  3.2km/h 3.0mph /  4.8km/h 95% 0.13in /  3.3mm
12:22 52.4 °F /  11.3 °C 51.3 °F /  10.7 °C 30.12in /  1019.9hPa ENE 3.0mph /  4.8km/h 4.0mph /  6.4km/h 96% 0.09in /  2.29mm
12:27 52.5 °F /  11.4 °C 51.1 °F /  10.6 °C 30.11in /  1019.5hPa East 4.0mph /  6.4km/h 5.0mph /  8km/h 95% 0.16in /  4.06mm
12:32 52.7 °F /  11.5 °C 51.6 °F /  10.9 °C 30.10in /  1019.2hPa ESE 4.0mph /  6.4km/h 5.0mph /  8km/h 96% 0.14in /  3.56mm
12:37 52.8 °F /  11.6 °C 51.7 °F /  10.9 °C 30.10in /  1019.2hPa ESE 4.0mph /  6.4km/h 6.0mph /  9.7km/h 96% 0.08in /  2.03mm
12:42 52.9 °F /  11.6 °C 51.8 °F /  11 °C 30.09in /  1018.8hPa East 6.0mph /  9.7km/h 6.0mph /  9.7km/h 96% 0.08in /  2.03mm
12:47 53.0 °F /  11.7 °C 51.9 °F /  11.1 °C 30.09in /  1018.8hPa East 6.0mph /  9.7km/h 6.0mph /  9.7km/h 96% 0.07in /  1.78mm
12:52 53.0 °F /  11.7 °C 51.9 °F /  11.1 °C 30.08in /  1018.5hPa East 4.0mph /  6.4km/h 7.0mph /  11.3km/h 96% 0.24in /  6.1mm
12:57 53.0 °F /  11.7 °C 51.9 °F /  11.1 °C 30.08in /  1018.5hPa ESE 6.0mph /  9.7km/h 7.0mph /  11.3km/h 96% 0.14in /  3.56mm
13:02 53.0 °F /  11.7 °C 51.9 °F /  11.1 °C 30.08in /  1018.5hPa ESE 5.0mph /  8km/h 7.0mph /  11.3km/h 96% 0.09in /  2.29mm
13:07 53.0 °F /  11.7 °C 51.9 °F /  11.1 °C 30.07in /  1018.2hPa ESE 4.0mph /  6.4km/h 7.0mph /  11.3km/h 96% 0.10in /  2.54mm
13:12 53.1 °F /  11.7 °C 52.0 °F /  11.1 °C 30.07in /  1018.2hPa ESE 5.0mph /  8km/h 7.0mph /  11.3km/h 96% 0.16in /  4.06mm
13:17 53.1 °F /  11.7 °C 52.0 °F /  11.1 °C 30.07in /  1018.2hPa ESE 7.0mph /  11.3km/h 7.0mph /  11.3km/h 96% 0.13in /  3.3mm
13:22 53.3 °F /  11.8 °C 52.2 °F /  11.2 °C 30.07in /  1018.2hPa SE 5.0mph /  8km/h 6.0mph /  9.7km/h 96% 0.09in /  2.29mm
13:27 53.4 °F /  11.9 °C 52.3 °F /  11.3 °C 30.06in /  1017.8hPa ESE 6.0mph /  9.7km/h 7.0mph /  11.3km/h 96% 0.15in /  3.81mm
13:32 53.5 °F /  11.9 °C 52.4 °F /  11.3 °C 30.06in /  1017.8hPa ESE 7.0mph /  11.3km/h 7.0mph /  11.3km/h 96% 0.10in /  2.54mm
13:38 53.7 °F /  12.1 °C 52.6 °F /  11.4 °C 30.06in /  1017.8hPa ESE 5.0mph /  8km/h 6.0mph /  9.7km/h 96% 0.12in /  3.05mm
13:43 53.7 °F /  12.1 °C 52.6 °F /  11.4 °C 30.05in /  1017.5hPa ESE 5.0mph /  8km/h 7.0mph /  11.3km/h 96% 0.14in /  3.56mm
13:48 53.8 °F /  12.1 °C 52.7 °F /  11.5 °C 30.05in /  1017.5hPa SE 5.0mph /  8km/h 6.0mph /  9.7km/h 96% 0.12in /  3.05mm
13:53 53.7 °F /  12.1 °C 52.6 °F /  11.4 °C 30.05in /  1017.5hPa ESE 5.0mph /  8km/h 6.0mph /  9.7km/h 96% 0.93in /  23.62mm
13:58 53.7 °F /  12.1 °C 52.6 °F /  11.4 °C 30.05in /  1017.5hPa ESE 4.0mph /  6.4km/h 6.0mph /  9.7km/h 96% 0.22in /  5.59mm
14:03 53.8 °F /  12.1 °C 52.7 °F /  11.5 °C 30.05in /  1017.5hPa SE 2.0mph /  3.2km/h 5.0mph /  8km/h 96% 0.12in /  3.05mm
14:08 53.9 °F /  12.2 °C 52.8 °F /  11.6 °C 30.04in /  1017.2hPa ESE 2.0mph /  3.2km/h 2.0mph /  3.2km/h 96% 0.30in /  7.62mm
14:13 53.9 °F /  12.2 °C 52.8 °F /  11.6 °C 30.05in /  1017.5hPa Calm   2.0mph /  3.2km/h 96% 0.23in /  5.84mm
14:18 54.0 °F /  12.2 °C 52.9 °F /  11.6 °C 30.05in /  1017.5hPa Calm     96% 0.16in /  4.06mm
14:24 54.0 °F /  12.2 °C 52.9 °F /  11.6 °C 30.04in /  1017.2hPa Calm   1.0mph /  1.6km/h 96% 0.11in /  2.79mm
14:29 54.1 °F /  12.3 °C 53.0 °F /  11.7 °C 30.04in /  1017.2hPa Calm     96% 0.11in /  2.79mm
14:34 54.1 °F /  12.3 °C 53.0 °F /  11.7 °C 30.04in /  1017.2hPa ESE 4.0mph /  6.4km/h 4.0mph /  6.4km/h 96% 0.08in /  2.03mm
14:39 54.2 °F /  12.3 °C 53.1 °F /  11.7 °C 30.02in /  1016.5hPa ESE 7.0mph /  11.3km/h 8.0mph /  12.9km/h 96% 0.07in /  1.78mm
14:44 54.3 °F /  12.4 °C 53.2 °F /  11.8 °C 30.02in /  1016.5hPa SE 7.0mph /  11.3km/h 10.0mph /  16.1km/h 96% 0.07in /  1.78mm
14:49 54.4 °F /  12.4 °C 53.3 °F /  11.8 °C 30.02in /  1016.5hPa SE 6.0mph /  9.7km/h 8.0mph /  12.9km/h 96% 0.06in /  1.52mm
14:54 54.3 °F /  12.4 °C 53.2 °F /  11.8 °C 30.02in /  1016.5hPa SE 7.0mph /  11.3km/h 10.0mph /  16.1km/h 96% 0.04in /  1.02mm
14:59 54.4 °F /  12.4 °C 53.3 °F /  11.8 °C 30.02in /  1016.5hPa SE 5.0mph /  8km/h 8.0mph /  12.9km/h 96% 0.00in /  0mm
15:04 54.4 °F /  12.4 °C 53.3 °F /  11.8 °C 30.02in /  1016.5hPa SE 6.0mph /  9.7km/h 9.0mph /  14.5km/h 96% 0.00in /  0mm
15:09 54.4 °F /  12.4 °C 53.3 °F /  11.8 °C 30.02in /  1016.5hPa SE 8.0mph /  12.9km/h 11.0mph /  17.7km/h 96% 0.00in /  0mm
15:14 54.6 °F /  12.6 °C 53.5 °F /  11.9 °C 30.03in /  1016.8hPa SSE 4.0mph /  6.4km/h 6.0mph /  9.7km/h 96% 0.00in /  0mm
15:19 54.6 °F /  12.6 °C 53.5 °F /  11.9 °C 30.03in /  1016.8hPa SE 4.0mph /  6.4km/h 4.0mph /  6.4km/h 96% 0.00in /  0mm
15:24 54.6 °F /  12.6 °C 53.5 °F /  11.9 °C 30.03in /  1016.8hPa ESE 3.0mph /  4.8km/h 3.0mph /  4.8km/h 96% 0.00in /  0mm
15:29 54.6 °F /  12.6 °C 53.5 °F /  11.9 °C 30.03in /  1016.8hPa SE 2.0mph /  3.2km/h 4.0mph /  6.4km/h 96% 0.00in /  0mm
15:34 54.6 °F /  12.6 °C 53.5 °F /  11.9 °C 30.02in /  1016.5hPa SE 3.0mph /  4.8km/h 4.0mph /  6.4km/h 96% 0.00in /  0mm
15:39 54.7 °F /  12.6 °C 53.6 °F /  12 °C 30.02in /  1016.5hPa ESE 4.0mph /  6.4km/h 8.0mph /  12.9km/h 96% 0.00in /  0mm
15:44 54.7 °F /  12.6 °C 53.6 °F /  12 °C 30.02in /  1016.5hPa South 2.0mph /  3.2km/h 4.0mph /  6.4km/h 96% 0.00in /  0mm
15:50 54.8 °F /  12.7 °C 53.7 °F /  12.1 °C 30.03in /  1016.8hPa SSE 2.0mph /  3.2km/h 4.0mph /  6.4km/h 96% 0.00in /  0mm
15:55 54.9 °F /  12.7 °C 53.8 °F /  12.1 °C 30.03in /  1016.8hPa SW 3.0mph /  4.8km/h 4.0mph /  6.4km/h 96% 0.00in /  0mm
16:00 55.0 °F /  12.8 °C 53.9 °F /  12.2 °C 30.03in /  1016.8hPa SSE 2.0mph /  3.2km/h 3.0mph /  4.8km/h 96% 0.00in /  0mm
16:05 55.0 °F /  12.8 °C 53.9 °F /  12.2 °C 30.02in /  1016.5hPa SSW 2.0mph /  3.2km/h 4.0mph /  6.4km/h 96% 0.00in /  0mm
16:10 55.1 °F /  12.8 °C 54.0 °F /  12.2 °C 30.02in /  1016.5hPa South 2.0mph /  3.2km/h 3.0mph /  4.8km/h 96% 0.00in /  0mm
16:15 55.2 °F /  12.9 °C 54.1 °F /  12.3 °C 30.03in /  1016.8hPa SSE 3.0mph /  4.8km/h 3.0mph /  4.8km/h 96% 0.00in /  0mm
16:20 55.3 °F /  12.9 °C 54.2 °F /  12.3 °C 30.02in /  1016.5hPa SSW 3.0mph /  4.8km/h 3.0mph /  4.8km/h 96% 0.00in /  0mm
16:25 55.4 °F /  13 °C 54.3 °F /  12.4 °C 30.02in /  1016.5hPa SSW 2.0mph /  3.2km/h 5.0mph /  8km/h 96% 0.00in /  0mm
16:30 55.4 °F /  13 °C 54.3 °F /  12.4 °C 30.02in /  1016.5hPa South 2.0mph /  3.2km/h 5.0mph /  8km/h 96% 0.00in /  0mm
16:35 55.4 °F /  13 °C 54.3 °F /  12.4 °C 30.02in /  1016.5hPa SSE 5.0mph /  8km/h 5.0mph /  8km/h 96% 0.00in /  0mm
16:40 55.4 °F /  13 °C 54.3 °F /  12.4 °C 30.01in /  1016.1hPa ESE 5.0mph /  8km/h 6.0mph /  9.7km/h 96% 0.00in /  0mm
16:45 55.4 °F /  13 °C 54.3 °F /  12.4 °C 30.00in /  1015.8hPa SE 6.0mph /  9.7km/h 9.0mph /  14.5km/h 96% 0.00in /  0mm
16:50 55.6 °F /  13.1 °C 54.5 °F /  12.5 °C 30.00in /  1015.8hPa SE 7.0mph /  11.3km/h 9.0mph /  14.5km/h 96% 0.00in /  0mm
16:55 55.7 °F /  13.2 °C 54.6 °F /  12.6 °C 30.00in /  1015.8hPa SSE 8.0mph /  12.9km/h 10.0mph /  16.1km/h 96% 0.00in /  0mm
17:00 55.9 °F /  13.3 °C 54.8 °F /  12.7 °C 30.00in /  1015.8hPa SE 9.0mph /  14.5km/h 13.0mph /  20.9km/h 96% 0.00in /  0mm
17:05 56.3 °F /  13.5 °C 55.2 °F /  12.9 °C 29.99in /  1015.5hPa SSE 7.0mph /  11.3km/h 14.0mph /  22.5km/h 96% 0.00in /  0mm
17:10 56.5 °F /  13.6 °C 55.4 °F /  13 °C 29.99in /  1015.5hPa SSE 9.0mph /  14.5km/h 12.0mph /  19.3km/h 96% 0.00in /  0mm
17:15 56.6 °F /  13.7 °C 55.5 °F /  13.1 °C 29.99in /  1015.5hPa SSE 6.0mph /  9.7km/h 10.0mph /  16.1km/h 96% 0.00in /  0mm
17:20 56.6 °F /  13.7 °C 55.5 °F /  13.1 °C 29.99in /  1015.5hPa SSE 8.0mph /  12.9km/h 11.0mph /  17.7km/h 96% 0.05in /  1.27mm
17:25 56.6 °F /  13.7 °C 55.5 °F /  13.1 °C 29.99in /  1015.5hPa SSE 5.0mph /  8km/h 9.0mph /  14.5km/h 96% 0.05in /  1.27mm
17:30 56.7 °F /  13.7 °C 55.6 °F /  13.1 °C 30.00in /  1015.8hPa SW 2.0mph /  3.2km/h 7.0mph /  11.3km/h 96% 0.05in /  1.27mm
17:35 56.7 °F /  13.7 °C 55.6 °F /  13.1 °C 30.02in /  1016.5hPa WNW 3.0mph /  4.8km/h 7.0mph /  11.3km/h 96% 0.00in /  0mm
17:36 56.7 °F /  13.7 °C 55.6 °F /  13.1 °C 30.02in /  1016.5hPa WNW 4.0mph /  6.4km/h 6.0mph /  9.7km/h 96% 0.00in /  0mm
17:41 56.7 °F /  13.7 °C 55.6 °F /  13.1 °C 30.02in /  1016.5hPa West 2.0mph /  3.2km/h 6.0mph /  9.7km/h 96% 0.00in /  0mm
17:46 56.7 °F /  13.7 °C 55.6 °F /  13.1 °C 30.02in /  1016.5hPa WNW 4.0mph /  6.4km/h 6.0mph /  9.7km/h 96% 0.00in /  0mm
17:51 56.8 °F /  13.8 °C 55.7 °F /  13.2 °C 30.02in /  1016.5hPa West 4.0mph /  6.4km/h 5.0mph /  8km/h 96% 0.00in /  0mm
17:56 56.7 °F /  13.7 °C 55.6 °F /  13.1 °C 30.02in /  1016.5hPa WSW 1.0mph /  1.6km/h 3.0mph /  4.8km/h 96% 0.00in /  0mm
18:01 56.7 °F /  13.7 °C 55.6 °F /  13.1 °C 30.02in /  1016.5hPa WNW 2.0mph /  3.2km/h 5.0mph /  8km/h 96% 0.00in /  0mm
18:06 56.7 °F /  13.7 °C 55.6 °F /  13.1 °C 30.01in /  1016.1hPa Calm   2.0mph /  3.2km/h 96% 0.00in /  0mm
18:11 56.6 °F /  13.7 °C 55.5 °F /  13.1 °C 30.01in /  1016.1hPa ESE 2.0mph /  3.2km/h 2.0mph /  3.2km/h 96% 0.00in /  0mm
18:16 56.6 °F /  13.7 °C 55.5 °F /  13.1 °C 30.00in /  1015.8hPa ESE 3.0mph /  4.8km/h 4.0mph /  6.4km/h 96% 0.00in /  0mm
18:21 56.6 °F /  13.7 °C 55.5 °F /  13.1 °C 30.01in /  1016.1hPa WNW 3.0mph /  4.8km/h 3.0mph /  4.8km/h 96% 0.00in /  0mm
18:26 56.5 °F /  13.6 °C 55.4 °F /  13 °C 30.02in /  1016.5hPa WNW 3.0mph /  4.8km/h 3.0mph /  4.8km/h 96% 0.00in /  0mm
18:31 56.5 °F /  13.6 °C 55.4 °F /  13 °C 30.01in /  1016.1hPa WNW 1.0mph /  1.6km/h 1.0mph /  1.6km/h 96% 0.00in /  0mm
18:36 56.5 °F /  13.6 °C 55.4 °F /  13 °C 30.02in /  1016.5hPa West 2.0mph /  3.2km/h 3.0mph /  4.8km/h 96% 0.00in /  0mm
18:41 56.5 °F /  13.6 °C 55.4 °F /  13 °C 30.02in /  1016.5hPa SW 1.0mph /  1.6km/h 3.0mph /  4.8km/h 96% 0.00in /  0mm
18:46 56.5 °F /  13.6 °C 55.4 °F /  13 °C 30.02in /  1016.5hPa WSW 1.0mph /  1.6km/h 1.0mph /  1.6km/h 96% 0.00in /  0mm
18:51 56.5 °F /  13.6 °C 55.4 °F /  13 °C 30.02in /  1016.5hPa WSW 3.0mph /  4.8km/h 3.0mph /  4.8km/h 96% 0.00in /  0mm
18:56 56.5 °F /  13.6 °C 55.4 °F /  13 °C 30.02in /  1016.5hPa West 1.0mph /  1.6km/h 3.0mph /  4.8km/h 96% 0.00in /  0mm
19:01 56.5 °F /  13.6 °C 55.4 °F /  13 °C 30.03in /  1016.8hPa WSW 2.0mph /  3.2km/h 2.0mph /  3.2km/h 96% 0.00in /  0mm
19:06 56.6 °F /  13.7 °C 55.5 °F /  13.1 °C 30.03in /  1016.8hPa SW 2.0mph /  3.2km/h 2.0mph /  3.2km/h 96% 0.00in /  0mm
19:11 56.6 °F /  13.7 °C 55.5 °F /  13.1 °C 30.02in /  1016.5hPa SSE 1.0mph /  1.6km/h 2.0mph /  3.2km/h 96% 0.00in /  0mm
19:16 56.6 °F /  13.7 °C 55.5 °F /  13.1 °C 30.02in /  1016.5hPa SW 1.0mph /  1.6km/h 2.0mph /  3.2km/h 96% 0.00in /  0mm
19:21 56.6 °F /  13.7 °C 55.5 °F /  13.1 °C 30.02in /  1016.5hPa Calm   2.0mph /  3.2km/h 96% 0.00in /  0mm
19:26 56.6 °F /  13.7 °C 55.5 °F /  13.1 °C 30.02in /  1016.5hPa Calm     96% 0.00in /  0mm
19:31 56.6 °F /  13.7 °C 55.5 °F /  13.1 °C 30.02in /  1016.5hPa Calm   1.0mph /  1.6km/h 96% 0.00in /  0mm
19:37 56.6 °F /  13.7 °C 55.5 °F /  13.1 °C 30.02in /  1016.5hPa Calm   1.0mph /  1.6km/h 96% 0.00in /  0mm
19:42 56.6 °F /  13.7 °C 55.5 °F /  13.1 °C 30.03in /  1016.8hPa Calm   1.0mph /  1.6km/h 96% 0.00in /  0mm
19:47 56.6 °F /  13.7 °C 55.5 °F /  13.1 °C 30.03in /  1016.8hPa WSW 1.0mph /  1.6km/h 2.0mph /  3.2km/h 96% 0.00in /  0mm
19:52 56.7 °F /  13.7 °C 55.6 °F /  13.1 °C 30.03in /  1016.8hPa West 1.0mph /  1.6km/h 2.0mph /  3.2km/h 96% 0.00in /  0mm
19:57 56.7 °F /  13.7 °C 55.6 °F /  13.1 °C 30.03in /  1016.8hPa West 1.0mph /  1.6km/h 2.0mph /  3.2km/h 96% 0.00in /  0mm
20:02 56.7 °F /  13.7 °C 55.6 °F /  13.1 °C 30.03in /  1016.8hPa West 1.0mph /  1.6km/h 1.0mph /  1.6km/h 96% 0.00in /  0mm
20:07 56.7 °F /  13.7 °C 55.6 °F /  13.1 °C 30.03in /  1016.8hPa West 1.0mph /  1.6km/h 2.0mph /  3.2km/h 96% 0.00in /  0mm
20:12 56.8 °F /  13.8 °C 55.7 °F /  13.2 °C 30.03in /  1016.8hPa West 1.0mph /  1.6km/h 3.0mph /  4.8km/h 96% 0.00in /  0mm
20:17 56.7 °F /  13.7 °C 55.6 °F /  13.1 °C 30.03in /  1016.8hPa West 1.0mph /  1.6km/h 2.0mph /  3.2km/h 96% 0.00in /  0mm
20:22 56.7 °F /  13.7 °C 55.6 °F /  13.1 °C 30.03in /  1016.8hPa West 2.0mph /  3.2km/h 3.0mph /  4.8km/h 96% 0.00in /  0mm
20:27 56.7 °F /  13.7 °C 55.6 °F /  13.1 °C 30.03in /  1016.8hPa West 2.0mph /  3.2km/h 2.0mph /  3.2km/h 96% 0.00in /  0mm
20:32 56.8 °F /  13.8 °C 55.7 °F /  13.2 °C 30.03in /  1016.8hPa WNW 1.0mph /  1.6km/h 4.0mph /  6.4km/h 96% 0.00in /  0mm
20:37 56.8 °F /  13.8 °C 55.7 °F /  13.2 °C 30.03in /  1016.8hPa West 1.0mph /  1.6km/h 3.0mph /  4.8km/h 96% 0.00in /  0mm
20:42 56.8 °F /  13.8 °C 55.7 °F /  13.2 °C 30.03in /  1016.8hPa West 1.0mph /  1.6km/h 2.0mph /  3.2km/h 96% 0.00in /  0mm
20:47 56.8 °F /  13.8 °C 55.7 °F /  13.2 °C 30.03in /  1016.8hPa West 2.0mph /  3.2km/h 2.0mph /  3.2km/h 96% 0.00in /  0mm
20:52 56.8 °F /  13.8 °C 55.7 °F /  13.2 °C 30.03in /  1016.8hPa Calm   1.0mph /  1.6km/h 96% 0.00in /  0mm
20:57 56.8 °F /  13.8 °C 55.7 °F /  13.2 °C 30.03in /  1016.8hPa Calm   1.0mph /  1.6km/h 96% 0.00in /  0mm
21:02 56.8 °F /  13.8 °C 55.7 °F /  13.2 °C 30.03in /  1016.8hPa Calm   1.0mph /  1.6km/h 96% 0.00in /  0mm
21:07 56.7 °F /  13.7 °C 55.6 °F /  13.1 °C 30.03in /  1016.8hPa Calm     96% 0.00in /  0mm
21:12 56.6 °F /  13.7 °C 55.5 °F /  13.1 °C 30.03in /  1016.8hPa Calm     96% 0.00in /  0mm
21:17 56.6 °F /  13.7 °C 55.5 °F /  13.1 °C 30.03in /  1016.8hPa Calm   1.0mph /  1.6km/h 96% 0.00in /  0mm
21:22 56.5 °F /  13.6 °C 55.4 °F /  13 °C 30.03in /  1016.8hPa SW 1.0mph /  1.6km/h 1.0mph /  1.6km/h 96% 0.00in /  0mm
21:28 56.5 °F /  13.6 °C 55.4 °F /  13 °C 30.03in /  1016.8hPa WSW 1.0mph /  1.6km/h 1.0mph /  1.6km/h 96% 0.00in /  0mm
21:33 56.5 °F /  13.6 °C 55.4 °F /  13 °C 30.04in /  1017.2hPa SW 2.0mph /  3.2km/h 2.0mph /  3.2km/h 96% 0.00in /  0mm
21:38 56.4 °F /  13.6 °C 55.3 °F /  12.9 °C 30.03in /  1016.8hPa SW 1.0mph /  1.6km/h 1.0mph /  1.6km/h 96% 0.00in /  0mm
21:43 56.4 °F /  13.6 °C 55.3 °F /  12.9 °C 30.03in /  1016.8hPa SW 1.0mph /  1.6km/h 1.0mph /  1.6km/h 96% 0.00in /  0mm
21:48 56.5 °F /  13.6 °C 55.4 °F /  13 °C 30.04in /  1017.2hPa SW 2.0mph /  3.2km/h 2.0mph /  3.2km/h 96% 0.00in /  0mm
21:53 56.5 °F /  13.6 °C 55.4 °F /  13 °C 30.03in /  1016.8hPa West 1.0mph /  1.6km/h 1.0mph /  1.6km/h 96% 0.00in /  0mm
21:58 56.5 °F /  13.6 °C 55.4 °F /  13 °C 30.03in /  1016.8hPa Calm   1.0mph /  1.6km/h 96% 0.00in /  0mm
22:03 56.6 °F /  13.7 °C 55.5 °F /  13.1 °C 30.03in /  1016.8hPa West 1.0mph /  1.6km/h 1.0mph /  1.6km/h 96% 0.00in /  0mm
22:08 56.6 °F /  13.7 °C 55.5 °F /  13.1 °C 30.03in /  1016.8hPa WSW 2.0mph /  3.2km/h 2.0mph /  3.2km/h 96% 0.00in /  0mm
22:13 56.7 °F /  13.7 °C 55.6 °F /  13.1 °C 30.03in /  1016.8hPa West 2.0mph /  3.2km/h 3.0mph /  4.8km/h 96% 0.00in /  0mm
22:18 56.8 °F /  13.8 °C 55.7 °F /  13.2 °C 30.03in /  1016.8hPa WSW 1.0mph /  1.6km/h 1.0mph /  1.6km/h 96% 0.00in /  0mm
22:23 56.8 °F /  13.8 °C 55.7 °F /  13.2 °C 30.03in /  1016.8hPa WSW 1.0mph /  1.6km/h 2.0mph /  3.2km/h 96% 0.00in /  0mm
22:28 56.8 °F /  13.8 °C 55.7 °F /  13.2 °C 30.04in /  1017.2hPa West 2.0mph /  3.2km/h 3.0mph /  4.8km/h 96% 0.00in /  0mm
22:33 56.8 °F /  13.8 °C 55.7 °F /  13.2 °C 30.03in /  1016.8hPa SW 1.0mph /  1.6km/h 3.0mph /  4.8km/h 96% 0.00in /  0mm
22:38 56.9 °F /  13.8 °C 55.8 °F /  13.2 °C 30.04in /  1017.2hPa WSW 2.0mph /  3.2km/h 5.0mph /  8km/h 96% 0.00in /  0mm
22:43 56.8 °F /  13.8 °C 55.7 °F /  13.2 °C 30.03in /  1016.8hPa SW 3.0mph /  4.8km/h 3.0mph /  4.8km/h 96% 0.00in /  0mm
22:48 56.8 °F /  13.8 °C 55.7 °F /  13.2 °C 30.04in /  1017.2hPa SW 2.0mph /  3.2km/h 2.0mph /  3.2km/h 96% 0.00in /  0mm
22:53 56.7 °F /  13.7 °C 55.6 °F /  13.1 °C 30.03in /  1016.8hPa SSW 1.0mph /  1.6km/h 2.0mph /  3.2km/h 96% 0.00in /  0mm
22:58 56.7 °F /  13.7 °C 55.6 °F /  13.1 °C 30.03in /  1016.8hPa SW 1.0mph /  1.6km/h 2.0mph /  3.2km/h 96% 0.00in /  0mm
23:03 56.8 °F /  13.8 °C 55.7 °F /  13.2 °C 30.03in /  1016.8hPa SSW 2.0mph /  3.2km/h 3.0mph /  4.8km/h 96% 0.00in /  0mm
23:09 56.8 °F /  13.8 °C 55.7 °F /  13.2 °C 30.03in /  1016.8hPa SW 1.0mph /  1.6km/h 2.0mph /  3.2km/h 96% 0.00in /  0mm
23:14 56.7 °F /  13.7 °C 55.6 °F /  13.1 °C 30.04in /  1017.2hPa SW 3.0mph /  4.8km/h 3.0mph /  4.8km/h 96% 0.00in /  0mm
23:19 56.7 °F /  13.7 °C 55.6 °F /  13.1 °C 30.03in /  1016.8hPa Calm   2.0mph /  3.2km/h 96% 0.00in /  0mm
23:24 56.7 °F /  13.7 °C 55.6 °F /  13.1 °C 30.03in /  1016.8hPa SW 1.0mph /  1.6km/h 2.0mph /  3.2km/h 96% 0.00in /  0mm
23:29 56.8 °F /  13.8 °C 55.7 °F /  13.2 °C 30.03in /  1016.8hPa Calm   2.0mph /  3.2km/h 96% 0.00in /  0mm
23:34 56.8 °F /  13.8 °C 55.7 °F /  13.2 °C 30.03in /  1016.8hPa SW 2.0mph /  3.2km/h 3.0mph /  4.8km/h 96% 0.00in /  0mm
23:39 56.8 °F /  13.8 °C 55.7 °F /  13.2 °C 30.03in /  1016.8hPa SW 1.0mph /  1.6km/h 2.0mph /  3.2km/h 96% 0.00in /  0mm
23:44 56.8 °F /  13.8 °C 55.7 °F /  13.2 °C 30.03in /  1016.8hPa SSW 2.0mph /  3.2km/h 4.0mph /  6.4km/h 96% 0.00in /  0mm
23:49 56.8 °F /  13.8 °C 55.7 °F /  13.2 °C 30.03in /  1016.8hPa SW 2.0mph /  3.2km/h 3.0mph /  4.8km/h 96% 0.00in /  0mm
23:54 56.9 °F /  13.8 °C 55.8 °F /  13.2 °C 30.03in /  1016.8hPa SW 1.0mph /  1.6km/h 2.0mph /  3.2km/h 96% 0.00in /  0mm
23:59 56.8 °F /  13.8 °C 55.7 °F /  13.2 °C 30.03in /  1016.8hPa SW 2.0mph /  3.2km/h 2.0mph /  3.2km/h 96% 0.00in /  0mm
Compliments of Weather Underground